Historique des mesures à Cassis (13260), France
Quotidien Résumé Mars 7, 2018 Unités:  US    Métrique   Métrique/US
« Précédent (Jour)
Suivant (Jour) »
Quotidien Hebdomadaire Mensuel Annuel Période au choix
  Maximum: Minimum: Moyenne:
Température: 32 °F 46.6 °F 50.2 °F
Point de rosée: 32 °F 37.6 °F 39 °F
Humidité: Humidity % 55 % 62 %
Vitesse du vent: WindSpeedKMH mph 1.8 mph 10 mph
Rafales: WindSpeedGustKMH mph - -
Vent:- - West
Pression: 0 in 29.4 in -
Précipitations: 0 in    
Historical Graphs
 
 
Mesures pour : Mars 7, 2018
Heure Temperature Point de rosée Pression Vent Vitesse du vent Rafales Humidité Pluie (par heure) Conditions
32 °F 32 °F 0 in Calm     Humidity % 0 in SoftwareType W/m2
00:12 50.2 °F 40.8 °F 29.4 in ENE 2.9 mph 3.5 mph 70 % 0 in open2300-1.11 W/m2
01:12 50.7 °F 40.5 °F 29.4 in North 1.8 mph 3.5 mph 68 % 0 in open2300-1.11 W/m2
02:12 49.6 °F 39.6 °F 29.4 in North 4.0 mph 4.0 mph 68 % 0 in open2300-1.11 W/m2
03:12 48.7 °F 39.7 °F 29.4 in West 10.5 mph 10.5 mph 71 % 0 in open2300-1.11 W/m2
04:12 48 °F 39.7 °F 29.4 in NNW 2.6 mph 2.9 mph 73 % 0 in open2300-1.11 W/m2
05:12 47.7 °F 38.7 °F 29.4 in NW 6.8 mph 6.8 mph 71 % 0 in open2300-1.11 W/m2
06:12 47.1 °F 38.1 °F 29.4 in NNW 4.7 mph 5.0 mph 71 % 0 in open2300-1.11 W/m2
07:12 46.6 °F 37.8 °F 29.4 in NNW 4.0 mph 4.3 mph 71 % 0 in open2300-1.11 W/m2
08:12 48.4 °F 38.1 °F 29.5 in NNW 13.4 mph 23.8 mph 68 % 0 in open2300-1.11 W/m2
09:11 49.6 °F 38.3 °F 29.5 in NW 11.1 mph 11.6 mph 65 % 0 in open2300-1.11 W/m2
10:12 49.8 °F 38.5 °F 29.5 in WNW 13.0 mph 13.0 mph 65 % 0 in open2300-1.11 W/m2
11:11 51.4 °F 38.8 °F 29.5 in WNW 4.7 mph 16.3 mph 62 % 0 in open2300-1.11 W/m2
12:12 54.3 °F 39.4 °F 29.5 in NNW 5.5 mph 22.4 mph 57 % 0 in open2300-1.11 W/m2
13:12 54.7 °F 38.7 °F 29.5 in WNW 8.2 mph 24.5 mph 55 % 0 in open2300-1.11 W/m2
14:12 54.5 °F 40.5 °F 29.5 in West 11.6 mph 33.8 mph 59 % 0 in open2300-1.11 W/m2
15:12 54.1 °F 40.6 °F 29.6 in NNW 11.9 mph 41.4 mph 60 % 0 in open2300-1.11 W/m2
16:12 53.8 °F 40.6 °F 29.6 in NNW 18.3 mph 40.2 mph 61 % 0 in open2300-1.11 W/m2
17:12 53.4 °F 40.6 °F 29.6 in WNW 32.3 mph 35.6 mph 62 % 0 in open2300-1.11 W/m2
18:12 52.7 °F 39.6 °F 29.6 in WNW 31.7 mph 31.7 mph 61 % 0 in open2300-1.11 W/m2
19:12 52.3 °F 39.2 °F 29.6 in West 7.6 mph 13.0 mph 61 % 0 in open2300-1.11 W/m2
20:12 51.6 °F 39.4 °F 29.7 in WNW 19.5 mph 22.4 mph 63 % 0 in open2300-1.11 W/m2
21:12 51.4 °F 39.9 °F 29.7 in NW 4.7 mph 14.0 mph 65 % 0 in open2300-1.11 W/m2
22:12 50.7 °F 38.5 °F 29.7 in NNW 5.5 mph 9.3 mph 63 % 0 in open2300-1.11 W/m2
23:12 49.3 °F 37.6 °F 29.7 in West 12.6 mph 14.0 mph 64 % 0 in open2300-1.11 W/m2
Observations météo à CASSIS
WU-History script by Weather Underground - 1 mb